Time;durP1;ratioP1;P1;durP2;ratioP2;P2;SDS_P1;SDS_P2;PMS_P1;PMS_P2;Temp;Humidity;BMP_temperature;BMP_pressure;BME280_temperature;BME280_humidity;BME280_pressure;Samples;Min_cycle;Max_cycle;Signal;HPM_P1;HPM_P2
2022/03/29 00:00:17;;;;;;;35.70;20.73;;;7.60;99.90;;;;;;5111006;28;20553;-63
2022/03/29 00:02:44;;;;;;;33.10;20.90;;;7.60;99.90;;;;;;5113911;27;20056;-64
2022/03/29 00:05:10;;;;;;;33.40;20.98;;;7.60;99.90;;;;;;5113021;28;20035;-63
2022/03/29 00:07:35;;;;;;;33.90;22.08;;;7.50;99.90;;;;;;5096550;28;20043;-64
2022/03/29 00:10:05;;;;;;;34.85;21.50;;;7.40;99.90;;;;;;5095273;28;20081;-64
2022/03/29 00:12:33;;;;;;;32.33;20.25;;;7.50;99.90;;;;;;5113750;27;20035;-63
2022/03/29 00:14:58;;;;;;;36.25;22.65;;;7.40;99.90;;;;;;5095978;28;20046;-63
2022/03/29 00:17:24;;;;;;;33.70;22.25;;;7.40;99.90;;;;;;5096528;28;20495;-63
2022/03/29 00:19:50;;;;;;;36.10;21.65;;;7.40;99.90;;;;;;5113073;28;20035;-64
2022/03/29 00:22:15;;;;;;;33.55;20.55;;;7.30;99.90;;;;;;5113146;27;20028;-64
2022/03/29 00:24:41;;;;;;;33.88;20.80;;;7.30;99.90;;;;;;5112989;27;20028;-64
2022/03/29 00:27:06;;;;;;;36.60;22.00;;;7.30;99.90;;;;;;5112348;28;20516;-64
2022/03/29 00:29:32;;;;;;;33.70;22.38;;;7.20;99.90;;;;;;5082766;28;20058;-64
2022/03/29 00:31:57;;;;;;;34.83;22.95;;;7.20;99.90;;;;;;5074380;28;20034;-63
2022/03/29 00:34:23;;;;;;;36.13;22.23;;;7.20;99.90;;;;;;5074071;28;20031;-63
2022/03/29 00:36:49;;;;;;;33.97;21.70;;;7.20;99.90;;;;;;5074364;28;20099;-63
2022/03/29 00:39:14;;;;;;;34.63;22.33;;;7.20;99.90;;;;;;5073915;28;20059;-64
2022/03/29 00:41:40;;;;;;;35.65;20.85;;;7.20;99.90;;;;;;5074241;28;20024;-64
2022/03/29 00:44:06;;;;;;;34.22;21.08;;;7.20;99.90;;;;;;5073419;28;20020;-63
2022/03/29 00:46:35;;;;;;;34.95;21.80;;;7.20;99.90;;;;;;5075188;28;20408;-63
2022/03/29 00:49:01;;;;;;;34.95;20.90;;;7.20;99.90;;;;;;5072383;28;20481;-63
2022/03/29 00:51:27;;;;;;;34.92;20.10;;;7.10;99.90;;;;;;5074040;28;20033;-64
2022/03/29 00:53:53;;;;;;;30.67;20.48;;;7.10;99.90;;;;;;5074130;28;20016;-62
2022/03/29 00:56:21;;;;;;;35.30;21.55;;;7.00;99.90;;;;;;5073781;28;20621;-64
2022/03/29 00:58:48;;;;;;;31.73;19.67;;;7.00;99.90;;;;;;5072430;28;20082;-61
2022/03/29 01:01:15;;;;;;;32.88;20.40;;;7.00;99.90;;;;;;5074219;28;20500;-64
2022/03/29 01:03:41;;;;;;;33.70;21.08;;;7.00;99.90;;;;;;5074038;28;20020;-64
2022/03/29 01:06:08;;;;;;;38.35;21.50;;;7.00;99.90;;;;;;5073583;28;20024;-64
2022/03/29 01:08:35;;;;;;;36.83;21.17;;;6.90;99.90;;;;;;5073986;28;20048;-63
2022/03/29 01:11:02;;;;;;;37.88;22.80;;;6.90;99.90;;;;;;5073297;28;20028;-64
2022/03/29 01:13:27;;;;;;;38.05;22.98;;;7.00;99.90;;;;;;5073799;28;20023;-63
2022/03/29 01:15:53;;;;;;;37.13;21.60;;;7.00;99.90;;;;;;5073059;28;20017;-63
2022/03/29 01:18:20;;;;;;;37.03;22.45;;;7.00;99.90;;;;;;5072144;28;20025;-63
2022/03/29 01:20:49;;;;;;;34.10;21.42;;;7.00;99.90;;;;;;5071869;28;20135;-63
2022/03/29 01:23:15;;;;;;;39.03;22.88;;;7.00;99.90;;;;;;5072187;28;20030;-63
2022/03/29 01:25:43;;;;;;;38.05;22.23;;;7.00;99.90;;;;;;5071821;28;20119;-61
2022/03/29 01:28:11;;;;;;;36.67;22.48;;;6.90;99.90;;;;;;5072735;28;20027;-63
2022/03/29 01:30:37;;;;;;;37.08;22.20;;;7.00;99.90;;;;;;5072428;28;20034;-64
2022/03/29 01:33:07;;;;;;;38.85;23.70;;;6.90;99.90;;;;;;5072432;28;20025;-63
2022/03/29 01:35:33;;;;;;;38.45;23.70;;;6.90;99.90;;;;;;5071916;28;20037;-63
2022/03/29 01:37:58;;;;;;;38.30;23.20;;;6.90;99.90;;;;;;5071840;28;20377;-63
2022/03/29 01:40:26;;;;;;;36.70;24.88;;;6.90;99.90;;;;;;5072655;28;20108;-64
2022/03/29 01:43:00;;;;;;;37.38;22.65;;;6.90;99.90;;;;;;5073534;28;20494;-63
2022/03/29 01:45:29;;;;;;;38.35;22.25;;;7.10;99.90;;;;;;5072840;28;20039;-64
2022/03/29 01:47:55;;;;;;;40.50;23.88;;;7.10;99.90;;;;;;5072932;28;20040;-62
2022/03/29 01:50:22;;;;;;;38.28;22.92;;;7.20;99.90;;;;;;5071240;28;20073;-63
2022/03/29 01:52:48;;;;;;;38.75;21.58;;;7.30;99.90;;;;;;5072903;28;20543;-64
2022/03/29 01:55:17;;;;;;;36.30;23.27;;;7.20;99.90;;;;;;5072285;28;20027;-63
2022/03/29 01:57:43;;;;;;;35.53;21.90;;;7.20;99.90;;;;;;5073051;28;20023;-63
2022/03/29 02:02:55;;;;;;;37.45;22.65;;;7.20;99.90;;;;;;5073001;28;20028;-64
2022/03/29 02:05:21;;;;;;;35.78;21.67;;;7.20;99.90;;;;;;5072434;28;20025;-63
2022/03/29 02:07:47;;;;;;;44.38;22.38;;;7.20;99.90;;;;;;5072772;28;20095;-63
2022/03/29 02:10:20;;;;;;;40.55;24.67;;;7.20;99.90;;;;;;5072096;28;20035;-63
2022/03/29 02:12:47;;;;;;;36.17;21.45;;;7.20;99.90;;;;;;5071473;28;20032;-64
2022/03/29 02:15:13;;;;;;;36.38;21.88;;;7.30;99.90;;;;;;5072302;28;20016;-63
2022/03/29 02:17:40;;;;;;;38.95;23.42;;;7.30;99.90;;;;;;5071064;28;20021;-64
2022/03/29 02:20:06;;;;;;;36.75;22.67;;;7.30;99.90;;;;;;5072223;28;20094;-63
2022/03/29 02:22:33;;;;;;;46.45;29.33;;;7.30;99.90;;;;;;5072463;28;20126;-64
2022/03/29 02:24:59;;;;;;;45.67;28.58;;;7.30;99.90;;;;;;5070852;28;20085;-63
2022/03/29 02:27:24;;;;;;;44.45;28.25;;;7.30;99.90;;;;;;5070856;28;20032;-63
2022/03/29 02:29:50;;;;;;;35.97;23.25;;;7.40;99.90;;;;;;5070831;28;20031;-64
2022/03/29 02:32:16;;;;;;;35.13;21.88;;;7.50;99.90;;;;;;5072176;28;20078;-63
2022/03/29 02:34:41;;;;;;;41.15;26.20;;;7.50;99.90;;;;;;5072262;28;20044;-64
2022/03/29 02:37:07;;;;;;;39.90;25.67;;;7.40;99.90;;;;;;5072344;28;20480;-63
2022/03/29 02:39:33;;;;;;;40.58;26.42;;;7.50;99.90;;;;;;5072304;28;20017;-64
2022/03/29 02:41:58;;;;;;;38.83;21.88;;;7.60;99.90;;;;;;5071127;28;20055;-63
2022/03/29 02:44:24;;;;;;;42.75;25.77;;;7.60;99.90;;;;;;5070623;28;20064;-63
2022/03/29 02:46:50;;;;;;;42.30;24.55;;;7.60;99.90;;;;;;5070801;28;20123;-63
2022/03/29 02:49:16;;;;;;;35.67;21.20;;;7.70;99.90;;;;;;5072136;28;20029;-63
2022/03/29 02:51:42;;;;;;;37.95;22.92;;;7.80;99.90;;;;;;5072395;28;20025;-63
2022/03/29 02:54:08;;;;;;;37.30;22.02;;;7.80;99.90;;;;;;5070533;28;20021;-67
2022/03/29 02:56:34;;;;;;;38.42;22.50;;;7.70;99.90;;;;;;5072209;28;20027;-64
2022/03/29 02:59:00;;;;;;;36.90;23.58;;;7.70;99.90;;;;;;5071532;28;20024;-63
2022/03/29 03:01:28;;;;;;;37.20;21.48;;;7.70;99.90;;;;;;5072149;28;20030;-64
2022/03/29 03:03:55;;;;;;;36.00;21.63;;;7.60;99.90;;;;;;5072161;28;20020;-63
2022/03/29 03:06:21;;;;;;;37.90;23.15;;;7.60;99.90;;;;;;5070665;28;20033;-64
2022/03/29 03:08:46;;;;;;;44.63;23.80;;;7.50;99.90;;;;;;5073109;28;20071;-60
2022/03/29 03:11:12;;;;;;;37.25;23.17;;;7.60;99.90;;;;;;5075140;28;20024;-63
2022/03/29 03:13:38;;;;;;;39.78;23.00;;;7.60;99.90;;;;;;5074686;28;20021;-63
2022/03/29 03:16:04;;;;;;;39.58;22.80;;;7.50;99.90;;;;;;5075773;28;20024;-63
2022/03/29 03:18:29;;;;;;;40.13;22.60;;;7.60;99.90;;;;;;5076317;28;20009;-63
2022/03/29 03:20:55;;;;;;;39.10;24.63;;;7.50;99.90;;;;;;5074717;28;20048;-63
2022/03/29 03:23:20;;;;;;;40.78;23.77;;;7.50;99.90;;;;;;5075963;28;20099;-63
2022/03/29 03:25:48;;;;;;;39.28;24.55;;;7.50;99.90;;;;;;5075827;28;20039;-64
2022/03/29 03:28:14;;;;;;;42.47;24.15;;;7.50;99.90;;;;;;5075664;28;20052;-63
2022/03/29 03:30:39;;;;;;;43.55;25.63;;;7.50;99.90;;;;;;5073791;28;20056;-66
2022/03/29 03:33:05;;;;;;;40.15;22.13;;;7.60;99.90;;;;;;5075751;28;20033;-67
2022/03/29 03:35:31;;;;;;;39.53;24.35;;;7.60;99.90;;;;;;5074491;28;20461;-64
2022/03/29 03:37:56;;;;;;;40.97;24.35;;;7.60;99.90;;;;;;5076345;28;20020;-64
2022/03/29 03:40:22;;;;;;;39.53;24.67;;;7.60;99.90;;;;;;5073825;28;20027;-65
2022/03/29 03:42:48;;;;;;;38.75;24.10;;;7.60;99.90;;;;;;5074125;28;20029;-66
2022/03/29 03:45:13;;;;;;;40.00;24.08;;;7.70;99.90;;;;;;5075057;28;20025;-64
2022/03/29 03:47:39;;;;;;;42.53;24.90;;;7.60;99.90;;;;;;5073820;28;20485;-65
2022/03/29 03:50:08;;;;;;;44.05;23.60;;;7.60;99.90;;;;;;5073385;28;20031;-64
2022/03/29 03:52:34;;;;;;;39.97;25.45;;;7.60;99.90;;;;;;5077687;28;20024;-65
2022/03/29 03:54:59;;;;;;;38.75;23.95;;;7.50;99.90;;;;;;5073481;28;20116;-64
2022/03/29 03:57:25;;;;;;;38.83;24.90;;;7.50;99.90;;;;;;5074796;28;20033;-64
2022/03/29 03:59:52;;;;;;;42.95;24.77;;;7.50;99.90;;;;;;5074818;28;20449;-65
2022/03/29 04:02:19;;;;;;;44.22;25.35;;;7.50;99.90;;;;;;5075101;28;20020;-65
2022/03/29 04:04:45;;;;;;;42.40;26.60;;;7.60;99.90;;;;;;5074593;28;20815;-65
2022/03/29 04:07:10;;;;;;;44.25;26.80;;;7.60;99.90;;;;;;5074777;28;20088;-65
2022/03/29 04:09:36;;;;;;;42.45;25.70;;;7.60;99.90;;;;;;5074494;28;20025;-68
2022/03/29 04:12:06;;;;;;;50.65;28.50;;;7.60;99.90;;;;;;5073568;28;20024;-64
2022/03/29 04:14:32;;;;;;;41.17;25.27;;;7.70;99.90;;;;;;5074737;28;20052;-64
2022/03/29 04:16:58;;;;;;;40.22;25.73;;;7.70;99.90;;;;;;5074999;28;20481;-64
2022/03/29 04:19:24;;;;;;;47.30;26.55;;;7.70;99.90;;;;;;5074582;28;20377;-67
2022/03/29 04:21:50;;;;;;;48.20;27.27;;;7.60;99.90;;;;;;5074940;28;20025;-64
2022/03/29 04:24:15;;;;;;;44.35;26.77;;;7.70;99.90;;;;;;5073158;28;20737;-65
2022/03/29 04:26:41;;;;;;;42.30;24.73;;;7.60;99.90;;;;;;5073418;28;20036;-65
2022/03/29 04:29:07;;;;;;;46.65;25.77;;;7.60;99.90;;;;;;5072953;28;20500;-64
2022/03/29 04:31:33;;;;;;;39.53;24.08;;;7.60;99.90;;;;;;5074714;28;20056;-64
2022/03/29 04:33:59;;;;;;;38.67;24.02;;;7.50;99.90;;;;;;5074373;28;20039;-65
2022/03/29 04:36:26;;;;;;;37.65;23.58;;;7.50;99.90;;;;;;5074117;28;20032;-64
2022/03/29 04:38:52;;;;;;;41.97;25.00;;;7.50;99.90;;;;;;5072568;28;20017;-65
2022/03/29 04:41:19;;;;;;;43.30;26.80;;;7.40;99.90;;;;;;5073299;28;20496;-63
2022/03/29 04:43:44;;;;;;;43.97;25.65;;;7.40;99.90;;;;;;5074275;28;20109;-65
2022/03/29 04:46:10;;;;;;;44.95;25.27;;;7.40;99.90;;;;;;5072653;28;20028;-64
2022/03/29 04:48:36;;;;;;;42.95;27.58;;;7.40;99.90;;;;;;5075066;28;20069;-63
2022/03/29 04:51:02;;;;;;;39.63;24.98;;;7.50;99.90;;;;;;5073798;28;20047;-64
2022/03/29 04:53:28;;;;;;;42.20;25.00;;;7.50;99.90;;;;;;5074663;28;20066;-64
2022/03/29 04:55:54;;;;;;;43.58;25.73;;;7.50;99.90;;;;;;5073804;28;20021;-63
2022/03/29 04:58:20;;;;;;;43.92;25.42;;;7.50;99.90;;;;;;5074061;28;20035;-65
2022/03/29 05:00:46;;;;;;;46.70;27.80;;;7.50;99.90;;;;;;5073469;28;20028;-65
2022/03/29 05:03:12;;;;;;;42.95;25.27;;;7.30;99.90;;;;;;5074000;28;20023;-65
2022/03/29 05:05:37;;;;;;;46.95;27.20;;;7.30;99.90;;;;;;5071454;28;20075;-64
2022/03/29 05:08:03;;;;;;;47.92;28.73;;;7.30;99.90;;;;;;5073850;28;20108;-63
2022/03/29 05:10:29;;;;;;;48.10;27.20;;;7.20;99.90;;;;;;5073341;28;20035;-64
2022/03/29 05:12:56;;;;;;;49.85;29.63;;;7.20;99.90;;;;;;5071895;28;20020;-62
2022/03/29 05:15:22;;;;;;;51.63;28.15;;;7.20;99.90;;;;;;5073390;28;20074;-64
2022/03/29 05:17:48;;;;;;;52.97;29.70;;;7.10;99.90;;;;;;5073175;28;20013;-64
2022/03/29 05:20:16;;;;;;;56.70;29.35;;;7.20;99.90;;;;;;5072992;28;20031;-64
2022/03/29 05:22:52;;;;;;;54.83;30.98;;;7.20;99.90;;;;;;5071997;28;20032;-63
2022/03/29 05:25:24;;;;;;;50.53;29.95;;;7.20;99.90;;;;;;5071828;28;20081;-64
2022/03/29 05:27:51;;;;;;;53.47;29.08;;;7.20;99.90;;;;;;5072102;28;20054;-63
2022/03/29 05:30:17;;;;;;;51.10;29.00;;;7.20;99.90;;;;;;5071284;28;20025;-64
2022/03/29 05:32:43;;;;;;;62.95;33.63;;;7.20;99.90;;;;;;5072957;28;20024;-65
2022/03/29 05:35:11;;;;;;;67.07;33.88;;;7.20;99.90;;;;;;5071105;28;20020;-65
2022/03/29 05:37:38;;;;;;;76.90;34.72;;;7.20;99.90;;;;;;5072709;28;20025;-65
2022/03/29 05:40:06;;;;;;;68.28;35.33;;;7.20;99.90;;;;;;5072539;28;20059;-65
2022/03/29 05:42:36;;;;;;;;;;;7.20;99.90;;;;;;5072000;28;20035;-65
2022/03/29 05:45:02;;;;;;;53.35;28.65;;;7.30;99.90;;;;;;5072341;28;19904;-65
2022/03/29 05:50:11;;;;;;;44.80;25.52;;;7.40;99.90;;;;;;5072492;28;20035;-63
2022/03/29 05:52:37;;;;;;;46.92;26.95;;;7.40;99.90;;;;;;5072524;28;20024;-64
2022/03/29 05:55:04;;;;;;;44.83;26.00;;;7.50;99.90;;;;;;5071735;28;20180;-61
2022/03/29 05:57:30;;;;;;;42.08;23.25;;;7.30;99.90;;;;;;5072340;28;20016;-65
2022/03/29 05:59:56;;;;;;;41.53;23.40;;;7.30;99.90;;;;;;5072102;28;20376;-64
2022/03/29 06:02:24;;;;;;;39.42;22.60;;;7.30;99.90;;;;;;5072528;28;20028;-63
2022/03/29 06:04:50;;;;;;;42.28;22.35;;;7.20;99.90;;;;;;5071968;28;20111;-64
2022/03/29 06:07:16;;;;;;;36.97;22.85;;;7.20;99.90;;;;;;5070893;28;20532;-64
2022/03/29 06:09:42;;;;;;;39.28;21.90;;;7.20;99.90;;;;;;5072566;28;20025;-64
2022/03/29 06:12:07;;;;;;;41.40;21.23;;;7.20;99.90;;;;;;5070893;28;20025;-64
2022/03/29 06:14:33;;;;;;;38.38;22.00;;;7.20;99.90;;;;;;5070356;28;20497;-63
2022/03/29 06:17:00;;;;;;;38.38;21.33;;;7.10;99.90;;;;;;5072113;28;20029;-65
2022/03/29 06:19:26;;;;;;;36.38;21.02;;;7.20;99.90;;;;;;5071851;28;20021;-63
2022/03/29 06:21:51;;;;;;;36.33;20.50;;;7.20;99.90;;;;;;5072137;28;20365;-63
2022/03/29 06:24:17;;;;;;;33.90;20.85;;;7.20;99.90;;;;;;5071970;28;20029;-64
2022/03/29 06:26:43;;;;;;;32.53;20.23;;;7.20;99.90;;;;;;5071808;28;20048;-64
2022/03/29 06:29:10;;;;;;;33.00;20.77;;;7.20;99.90;;;;;;5070291;28;20052;-65
2022/03/29 06:31:37;;;;;;;34.13;19.38;;;7.20;99.90;;;;;;5070730;28;20054;-64
2022/03/29 06:34:03;;;;;;;34.38;19.60;;;7.20;99.90;;;;;;5071810;28;20021;-61
2022/03/29 06:36:29;;;;;;;31.98;18.13;;;7.20;99.90;;;;;;5072431;28;20648;-65
2022/03/29 06:38:55;;;;;;;32.35;19.30;;;7.30;99.90;;;;;;5071884;28;20056;-64
2022/03/29 06:41:21;;;;;;;34.30;20.50;;;7.40;99.90;;;;;;5072750;28;20028;-64
2022/03/29 06:43:47;;;;;;;33.42;19.65;;;7.30;99.90;;;;;;5071248;28;20025;-64
2022/03/29 06:48:44;;;;;;;34.65;20.00;;;7.40;99.90;;;;;;5090737;22;20059;-64
2022/03/29 06:51:13;;;;;;;35.40;20.45;;;7.40;99.90;;;;;;5070370;28;20024;-63
2022/03/29 06:53:42;;;;;;;34.20;20.83;;;7.40;99.90;;;;;;5071031;28;20055;-63
2022/03/29 06:56:08;;;;;;;36.42;21.15;;;7.50;99.90;;;;;;5070872;28;20029;-63
2022/03/29 06:58:35;;;;;;;34.35;20.55;;;7.40;99.90;;;;;;5071190;28;20043;-64
2022/03/29 07:01:00;;;;;;;34.08;20.42;;;7.40;99.90;;;;;;5070315;28;20036;-62
2022/03/29 07:03:27;;;;;;;36.63;21.00;;;7.50;99.90;;;;;;5071213;28;20029;-61
2022/03/29 07:05:53;;;;;;;38.47;20.52;;;7.50;99.90;;;;;;5070826;28;20113;-64
2022/03/29 07:08:20;;;;;;;37.65;22.25;;;7.60;99.90;;;;;;5070893;28;20051;-63
2022/03/29 07:13:30;;;;;;;40.05;23.15;;;7.60;99.90;;;;;;5070501;28;20031;-63
2022/03/29 07:15:56;;;;;;;40.53;22.35;;;7.50;99.90;;;;;;5070183;28;20017;-57
2022/03/29 07:18:22;;;;;;;39.13;22.67;;;7.40;99.90;;;;;;5070457;28;20042;-61
2022/03/29 07:20:48;;;;;;;37.30;22.45;;;7.50;99.90;;;;;;5070314;28;20365;-62
2022/03/29 07:23:14;;;;;;;43.15;24.00;;;7.40;99.90;;;;;;5069772;28;20021;-63
2022/03/29 07:25:40;;;;;;;35.75;21.88;;;7.50;99.90;;;;;;5070437;28;20027;-65
2022/03/29 07:28:11;;;;;;;34.85;21.00;;;7.60;99.90;;;;;;5070534;28;20480;-63
2022/03/29 07:30:38;;;;;;;37.53;20.55;;;7.70;99.90;;;;;;5070009;28;20452;-62
2022/03/29 07:33:04;;;;;;;36.85;21.77;;;7.80;99.90;;;;;;5070319;28;20542;-64
2022/03/29 07:35:31;;;;;;;40.40;22.95;;;8.00;99.90;;;;;;5070331;28;20434;-65
2022/03/29 07:37:58;;;;;;;36.67;21.90;;;8.10;99.90;;;;;;5070594;28;20029;-64
2022/03/29 07:40:26;;;;;;;41.22;22.73;;;8.10;99.90;;;;;;5070200;28;20078;-64
2022/03/29 07:42:53;;;;;;;34.03;19.67;;;8.00;99.90;;;;;;5070325;28;20028;-64
2022/03/29 07:45:19;;;;;;;38.83;21.55;;;8.10;99.90;;;;;;5070041;28;20453;-69
2022/03/29 07:47:48;;;;;;;37.08;21.58;;;8.20;99.90;;;;;;5070127;28;20032;-65
2022/03/29 07:50:14;;;;;;;37.83;21.70;;;8.10;99.90;;;;;;5069204;28;20043;-64
2022/03/29 07:52:42;;;;;;;40.88;21.25;;;8.30;99.90;;;;;;5070227;28;20024;-63
2022/03/29 07:55:10;;;;;;;36.78;21.65;;;8.40;99.90;;;;;;5072674;28;20057;-60
2022/03/29 07:57:36;;;;;;;37.78;21.60;;;8.40;99.90;;;;;;5073574;28;20082;-62
2022/03/29 08:00:31;;;;;;;37.95;21.70;;;8.40;99.90;;;;;;5073742;28;20090;-63
2022/03/29 08:02:49;;;;;;;38.10;23.30;;;8.40;99.90;;;;;;5071718;28;20024;-61
2022/03/29 08:05:14;;;;;;;37.47;20.88;;;8.60;99.90;;;;;;5073265;28;20082;-63
2022/03/29 08:07:41;;;;;;;38.53;21.95;;;8.60;99.90;;;;;;5073745;28;20024;-63
2022/03/29 08:10:07;;;;;;;37.15;20.60;;;8.60;99.90;;;;;;5072103;28;20078;-63
2022/03/29 08:12:34;;;;;;;38.92;22.70;;;8.40;99.90;;;;;;5074141;28;20361;-64
2022/03/29 08:15:00;;;;;;;41.08;21.40;;;8.60;99.90;;;;;;5073523;28;20050;-64
2022/03/29 08:17:26;;;;;;;39.42;21.58;;;8.70;99.90;;;;;;5073924;28;20025;-64
2022/03/29 08:19:52;;;;;;;35.28;22.30;;;8.90;99.90;;;;;;5073052;28;20096;-63
2022/03/29 08:22:18;;;;;;;38.45;22.27;;;9.00;99.90;;;;;;5073199;28;20044;-63
2022/03/29 08:24:44;;;;;;;39.25;21.27;;;9.00;99.90;;;;;;5073037;28;20024;-63
2022/03/29 08:27:10;;;;;;;39.17;22.27;;;9.10;99.90;;;;;;5072012;28;20070;-62
2022/03/29 08:29:37;;;;;;;39.20;24.52;;;9.40;99.90;;;;;;5073141;28;20028;-63
2022/03/29 08:32:04;;;;;;;41.45;22.90;;;9.60;99.90;;;;;;5073117;28;20111;-63
2022/03/29 08:34:30;;;;;;;37.78;22.30;;;9.60;99.90;;;;;;5073035;28;20100;-61
2022/03/29 08:36:56;;;;;;;43.58;26.88;;;9.70;99.90;;;;;;5071511;28;20047;-63
2022/03/29 08:39:22;;;;;;;37.63;22.77;;;9.90;99.90;;;;;;5072763;28;20013;-62
2022/03/29 08:41:55;;;;;;;34.72;21.35;;;10.00;99.90;;;;;;5071624;28;20040;-64
2022/03/29 08:44:23;;;;;;;35.67;22.02;;;10.00;99.90;;;;;;5072838;28;20075;-65
2022/03/29 08:46:50;;;;;;;37.05;20.80;;;9.90;99.90;;;;;;5072777;28;20028;-63
2022/03/29 08:49:18;;;;;;;38.58;22.35;;;10.00;99.90;;;;;;5072385;28;20029;-64
2022/03/29 08:51:44;;;;;;;36.70;21.30;;;10.10;99.90;;;;;;5073023;28;20033;-64
2022/03/29 08:54:10;;;;;;;36.63;22.27;;;10.30;99.90;;;;;;5073032;28;20025;-63
2022/03/29 08:56:37;;;;;;;36.15;21.70;;;10.40;99.90;;;;;;5072907;28;20027;-58
2022/03/29 08:59:03;;;;;;;36.05;21.88;;;10.40;99.90;;;;;;5071090;28;20028;-64
2022/03/29 09:01:28;;;;;;;36.35;20.05;;;10.30;99.90;;;;;;5072631;28;20086;-61
2022/03/29 09:04:06;;;;;;;35.92;21.25;;;10.40;99.90;;;;;;5072043;28;20090;-63
2022/03/29 09:06:32;;;;;;;36.92;21.75;;;10.60;99.90;;;;;;5071812;28;20027;-61
2022/03/29 09:08:58;;;;;;;52.25;32.10;;;10.80;99.90;;;;;;5072268;28;20039;-63
2022/03/29 09:11:24;;;;;;;36.15;23.58;;;10.90;99.90;;;;;;5072295;28;20429;-61
2022/03/29 09:14:05;;;;;;;38.15;21.92;;;10.90;99.90;;;;;;5070862;28;20385;-61
2022/03/29 09:16:34;;;;;;;39.15;22.40;;;10.80;99.90;;;;;;5072649;28;20017;-61
2022/03/29 09:19:00;;;;;;;37.28;21.77;;;10.90;99.90;;;;;;5072445;28;20017;-60
2022/03/29 09:21:27;;;;;;;37.47;20.38;;;11.10;99.90;;;;;;5072627;28;20078;-62
2022/03/29 09:24:06;;;;;;;36.95;22.15;;;11.20;99.90;;;;;;5087798;28;20439;-61
2022/03/29 09:26:32;;;;;;;35.25;22.33;;;11.40;99.90;;;;;;5072385;28;20025;-60
2022/03/29 09:28:58;;;;;;;38.58;23.40;;;11.70;99.90;;;;;;5071517;28;20078;-59
2022/03/29 09:31:27;;;;;;;36.38;22.42;;;11.80;99.90;;;;;;5071889;28;20061;-62
2022/03/29 09:34:13;;;;;;;36.55;22.00;;;11.80;99.90;;;;;;5071655;28;20018;-61
2022/03/29 09:36:50;;;;;;;40.55;23.40;;;12.10;99.90;;;;;;5071045;28;21716;-59
2022/03/29 09:39:29;;;;;;;36.38;21.88;;;12.20;99.90;;;;;;5071279;28;20381;-61
2022/03/29 09:42:00;;;;;;;39.65;23.77;;;12.10;99.90;;;;;;5070288;28;20028;-61
2022/03/29 09:44:46;;;;;;;37.63;23.75;;;11.80;99.90;;;;;;5070984;28;20020;-57
2022/03/29 09:47:15;;;;;;;35.53;22.02;;;11.90;99.90;;;;;;5069624;28;20040;-61
2022/03/29 09:49:53;;;;;;;42.65;23.65;;;12.00;99.90;;;;;;5070744;28;20438;-62
2022/03/29 09:52:20;;;;;;;40.00;22.58;;;12.20;99.90;;;;;;5070999;28;20041;-62
2022/03/29 09:55:16;;;;;;;37.77;22.50;;;12.50;99.90;;;;;;5070879;28;20250;-62
2022/03/29 09:57:59;;;;;;;34.95;24.05;;;12.80;99.90;;;;;;5071218;28;20028;-62
2022/03/29 10:00:25;;;;;;;34.67;21.88;;;12.60;99.90;;;;;;5070930;28;20039;-61
2022/03/29 10:02:51;;;;;;;37.90;23.30;;;12.30;99.90;;;;;;5071489;28;20107;-62
2022/03/29 10:05:18;;;;;;;35.30;23.20;;;12.60;99.90;;;;;;5070628;28;20506;-61
2022/03/29 10:07:45;;;;;;;38.55;23.20;;;12.80;99.90;;;;;;5071347;28;20032;-61
2022/03/29 10:10:11;;;;;;;39.75;25.75;;;13.10;99.90;;;;;;5070786;28;20083;-60
2022/03/29 10:12:37;;;;;;;38.47;23.33;;;13.70;99.90;;;;;;5066582;28;20366;-60
2022/03/29 10:15:04;;;;;;;36.15;23.77;;;14.00;99.90;;;;;;5070232;28;20116;-63
2022/03/29 10:17:31;;;;;;;49.10;25.42;;;14.60;99.90;;;;;;5071479;28;20097;-62
2022/03/29 10:19:57;;;;;;;37.45;24.52;;;14.80;99.90;;;;;;5070496;28;20024;-61
2022/03/29 10:22:23;;;;;;;36.65;23.63;;;13.90;99.10;;;;;;5070958;28;20033;-61
2022/03/29 10:24:49;;;;;;;38.60;24.83;;;13.50;99.90;;;;;;5070176;28;20112;-60
2022/03/29 10:27:17;;;;;;;38.83;23.10;;;13.20;99.90;;;;;;5070627;28;20181;-61
2022/03/29 10:29:43;;;;;;;41.00;25.40;;;13.30;99.90;;;;;;5070382;28;20072;-62
2022/03/29 10:32:10;;;;;;;38.90;24.50;;;13.30;99.90;;;;;;5070805;28;20032;-61
2022/03/29 10:34:42;;;;;;;36.25;23.05;;;13.40;99.90;;;;;;5070589;28;20124;-61
2022/03/29 10:37:12;;;;;;;36.85;24.73;;;13.80;99.90;;;;;;5070986;28;20025;-62
2022/03/29 10:39:59;;;;;;;40.40;24.90;;;13.90;99.20;;;;;;5070924;28;20016;-61
2022/03/29 10:42:44;;;;;;;32.63;22.67;;;13.70;99.40;;;;;;5070839;28;20057;-61
2022/03/29 10:45:27;;;;;;;37.40;24.02;;;14.00;98.80;;;;;;5070508;28;20028;-61
2022/03/29 10:48:02;;;;;;;35.53;23.02;;;13.40;99.30;;;;;;5070849;28;20042;-60
2022/03/29 10:50:46;;;;;;;36.08;24.15;;;13.60;99.30;;;;;;5069535;28;20093;-62
2022/03/29 10:53:45;;;;;;;37.45;23.60;;;13.70;99.00;;;;;;5070964;28;20067;-61
2022/03/29 10:56:15;;;;;;;36.08;22.52;;;14.00;98.60;;;;;;5058362;28;20032;-61
2022/03/29 10:59:02;;;;;;;40.10;24.10;;;14.10;98.20;;;;;;5070774;28;20088;-61
2022/03/29 11:01:32;;;;;;;34.63;23.97;;;14.30;97.80;;;;;;5070957;28;20048;-62
2022/03/29 11:04:01;;;;;;;36.88;24.63;;;14.50;97.40;;;;;;5071032;28;20408;-61
2022/03/29 11:06:27;;;;;;;37.00;25.23;;;14.60;97.10;;;;;;5084890;28;20115;-62
2022/03/29 11:09:06;;;;;;;37.00;24.98;;;14.90;96.60;;;;;;5069754;28;20048;-63
2022/03/29 11:11:37;;;;;;;37.88;24.85;;;15.20;96.20;;;;;;5069210;28;20041;-63
2022/03/29 11:14:29;;;;;;;35.92;25.10;;;15.50;96.40;;;;;;5069516;28;20025;-62
2022/03/29 11:17:08;;;;;;;36.15;23.45;;;16.10;94.90;;;;;;5062572;28;20112;-62
2022/03/29 11:19:54;;;;;;;37.53;26.58;;;16.40;94.10;;;;;;5069150;28;20526;-62
2022/03/29 11:22:34;;;;;;;39.60;27.70;;;16.40;94.20;;;;;;5069474;28;20082;-65
2022/03/29 11:25:04;;;;;;;41.67;28.13;;;17.20;93.70;;;;;;5069934;28;20033;-61
2022/03/29 11:27:32;;;;;;;34.58;24.83;;;17.40;92.80;;;;;;5070690;28;20130;-61
2022/03/29 11:29:58;;;;;;;;;;;18.30;91.50;;;;;;5073924;28;20020;-61
2022/03/29 11:32:24;;;;;;;34.50;24.95;;;18.90;90.70;;;;;;5074495;28;19915;-61
2022/03/29 11:34:58;;;;;;;35.15;25.30;;;19.20;87.40;;;;;;5074554;28;20481;-61
2022/03/29 11:37:40;;;;;;;38.78;27.67;;;19.50;86.00;;;;;;5074511;28;20016;-60
2022/03/29 11:40:08;;;;;;;34.70;25.95;;;18.90;84.20;;;;;;5072633;28;20028;-60
2022/03/29 11:42:51;;;;;;;36.17;26.98;;;19.30;83.40;;;;;;5074269;28;20488;-60
2022/03/29 11:45:18;;;;;;;35.45;27.45;;;19.70;82.20;;;;;;5074198;28;20040;-62
2022/03/29 11:48:07;;;;;;;34.00;27.33;;;19.50;80.10;;;;;;5074336;28;20131;-60
2022/03/29 11:50:38;;;;;;;42.17;27.85;;;19.50;80.10;;;;;;5072987;28;20016;-59
2022/03/29 11:53:24;;;;;;;34.42;27.50;;;19.00;81.00;;;;;;5072207;28;20035;-60
2022/03/29 11:56:14;;;;;;;34.78;26.90;;;18.80;79.70;;;;;;5072897;28;20021;-57
2022/03/29 11:58:52;;;;;;;33.08;24.80;;;19.10;79.30;;;;;;5071353;28;20493;-60
2022/03/29 12:01:27;;;;;;;36.78;26.85;;;18.90;80.10;;;;;;5073311;28;20028;-61
2022/03/29 12:03:54;;;;;;;33.50;24.75;;;18.80;78.20;;;;;;5072931;28;20129;-62
2022/03/29 12:06:19;;;;;;;32.38;23.98;;;18.90;78.90;;;;;;5073240;28;20501;-59
2022/03/29 12:08:58;;;;;;;36.08;27.17;;;19.30;79.00;;;;;;5072047;28;20024;-61
2022/03/29 12:11:25;;;;;;;33.38;23.55;;;19.00;76.80;;;;;;5071513;28;20027;-61
2022/03/29 12:14:20;;;;;;;34.70;25.23;;;19.10;80.20;;;;;;5072915;28;20104;-60
2022/03/29 12:16:52;;;;;;;32.20;24.58;;;19.40;76.70;;;;;;5058502;28;20039;-61
2022/03/29 12:19:18;;;;;;;36.17;27.27;;;20.30;75.20;;;;;;5072495;28;20035;-61
2022/03/29 12:21:51;;;;;;;33.08;26.15;;;20.10;74.30;;;;;;5069957;28;20029;-62
2022/03/29 12:24:18;;;;;;;35.92;25.58;;;20.50;72.20;;;;;;5072745;28;20408;-62
2022/03/29 12:26:45;;;;;;;31.95;24.40;;;20.00;74.00;;;;;;5071565;28;20036;-63
2022/03/29 12:29:14;;;;;;;32.67;25.57;;;21.10;72.70;;;;;;5073234;28;20029;-61
2022/03/29 12:31:40;;;;;;;32.10;25.70;;;20.90;69.60;;;;;;5073269;28;20263;-62
2022/03/29 12:34:07;;;;;;;31.38;24.30;;;21.00;68.80;;;;;;5072886;28;20082;-62
2022/03/29 12:36:32;;;;;;;34.40;24.73;;;21.20;68.20;;;;;;5073041;28;20526;-62
2022/03/29 12:39:04;;;;;;;30.80;24.13;;;21.90;67.10;;;;;;5072653;28;20039;-63
2022/03/29 12:41:41;;;;;;;33.67;24.30;;;21.30;67.70;;;;;;5071544;28;20476;-61
2022/03/29 12:44:09;;;;;;;66.80;50.75;;;21.60;67.90;;;;;;5072812;28;20032;-65
2022/03/29 12:46:36;;;;;;;31.67;24.58;;;22.10;66.00;;;;;;5072994;28;20021;-62
2022/03/29 12:49:03;;;;;;;34.35;25.58;;;21.40;66.10;;;;;;5073399;22;20057;-67